Hlavní strana
METAR-TAF:

METAR-TAF

Letiště :

Pskov, Rusko

zeměpisná šířka: 57-47-06N, zeměpisná délka: 028-23-54E, výška: 47 m

Aktuální stav počasí

Zpráva byla vytvořena před 56 minutami, v 04:00 UTC
Východojihovýchodní vítr 6 kt
Teplota 9°C
Vlhkost vzduchu 93%
Tlak 1024 hPa
Viditelnost: 4200 m

METAR: ULOO 180400Z AUTO 12003MPS 4200 // ///004/// 09/08 Q1024 RMK QFE763

Čas: 07:56 (04:56 UTC)

Předpověď počasí

Zpráva byla vytvořena před 1 hodinou a 2 minutami, v 03:54 UTC
Předpověď platná od 18 v 03 UTC do 18 v 12 UTC
Východojihovýchodní vítr 6 kt
Viditelnost: 3100 m
Oblačno až skoro zataženo ve výšce 400 ft
Oblačno až skoro zataženo ve výšce 1100 ft
kouřmo
Dočasný
od 18 v 03 UTC do 18 v 07 UTC
Viditelnost: 0500 m
ve výšce 200 ft
mlha
Dočasný
od 18 v 07 UTC do 18 v 12 UTC
Viditelnost: 1200 m
Oblačno až skoro zataženo ve výšce 300 ft
kouřmo

TAF: ULOO 180354Z 1803/1812 12003MPS 3100 BR BKN004 BKN011 TEMPO 1803/1807 0500 FG VV002 TEMPO 1807/1812 1200 BR BKN003

Stav a předpovědi počasí z více než 4 000 letišť (zprávy METAR a TAF).

Červené a žluté tečky na mapě představují dostupné meteorologické stanice.

Když kurzor umístíte na tečku, zobrazí se název stanice.

Pak kliknutím zobrazíte stav a předpověď počasí.

Chcete-li změnit mapu, kliknutím na zelené tlačítko se znaménkem +mapu přiblížíte, kliknutím na zelené tlačítko se znaménkem – mapu oddálíte a kliknutím na zelené šipky přejdete na sousední mapy.


METAR-TAF: